sensor_id;sensor_type;location;lat;lon;timestamp;pressure;altitude;pressure_sealevel;temperature;humidity
13029;BME280;6581;42.662;23.402;2022-12-07T00:01:17;95346.56;;;5.81;100.00
13029;BME280;6581;42.662;23.402;2022-12-07T00:03:47;95345.59;;;5.86;100.00
13029;BME280;6581;42.662;23.402;2022-12-07T00:06:16;95346.63;;;5.93;100.00
13029;BME280;6581;42.662;23.402;2022-12-07T00:08:44;95345.31;;;5.99;100.00
13029;BME280;6581;42.662;23.402;2022-12-07T00:11:12;95346.09;;;6.00;100.00
13029;BME280;6581;42.662;23.402;2022-12-07T00:13:40;95340.91;;;5.91;100.00
13029;BME280;6581;42.662;23.402;2022-12-07T00:16:10;95342.03;;;6.02;100.00
13029;BME280;6581;42.662;23.402;2022-12-07T00:18:38;95348.06;;;6.03;100.00
13029;BME280;6581;42.662;23.402;2022-12-07T00:21:09;95341.03;;;5.95;100.00
13029;BME280;6581;42.662;23.402;2022-12-07T00:23:39;95337.66;;;6.06;100.00
13029;BME280;6581;42.662;23.402;2022-12-07T00:26:07;95339.19;;;6.07;100.00
13029;BME280;6581;42.662;23.402;2022-12-07T00:28:35;95342.16;;;6.06;100.00
13029;BME280;6581;42.662;23.402;2022-12-07T00:31:04;95334.72;;;6.08;100.00
13029;BME280;6581;42.662;23.402;2022-12-07T00:33:34;95332.75;;;6.17;100.00
13029;BME280;6581;42.662;23.402;2022-12-07T00:36:03;95343.38;;;6.08;100.00
13029;BME280;6581;42.662;23.402;2022-12-07T00:38:32;95339.97;;;5.96;100.00
13029;BME280;6581;42.662;23.402;2022-12-07T00:41:01;95345.75;;;5.89;100.00
13029;BME280;6581;42.662;23.402;2022-12-07T00:43:29;95350.09;;;5.85;100.00
13029;BME280;6581;42.662;23.402;2022-12-07T00:45:57;95351.84;;;5.81;100.00
13029;BME280;6581;42.662;23.402;2022-12-07T00:48:24;95344.38;;;5.83;100.00
13029;BME280;6581;42.662;23.402;2022-12-07T00:50:53;95335.72;;;5.82;100.00
13029;BME280;6581;42.662;23.402;2022-12-07T00:53:21;95329.81;;;5.86;100.00
13029;BME280;6581;42.662;23.402;2022-12-07T00:55:48;95335.53;;;5.88;100.00
13029;BME280;6581;42.662;23.402;2022-12-07T00:58:15;95329.97;;;5.89;100.00
13029;BME280;6581;42.662;23.402;2022-12-07T01:00:43;95329.97;;;5.89;100.00
13029;BME280;6581;42.662;23.402;2022-12-07T01:03:13;95333.59;;;5.97;100.00
13029;BME280;6581;42.662;23.402;2022-12-07T01:05:49;95329.34;;;6.04;100.00
13029;BME280;6581;42.662;23.402;2022-12-07T01:08:17;95331.31;;;6.07;100.00
13029;BME280;6581;42.662;23.402;2022-12-07T01:10:45;95331.66;;;6.18;100.00
13029;BME280;6581;42.662;23.402;2022-12-07T01:13:12;95332.28;;;6.15;100.00
13029;BME280;6581;42.662;23.402;2022-12-07T01:15:39;95326.72;;;6.04;100.00
13029;BME280;6581;42.662;23.402;2022-12-07T01:18:07;95327.38;;;6.13;100.00
13029;BME280;6581;42.662;23.402;2022-12-07T01:20:34;95327.03;;;6.15;100.00
13029;BME280;6581;42.662;23.402;2022-12-07T01:23:01;95317.19;;;6.24;100.00
13029;BME280;6581;42.662;23.402;2022-12-07T01:25:56;95322.00;;;6.22;100.00
13029;BME280;6581;42.662;23.402;2022-12-07T01:28:24;95316.41;;;6.23;100.00
13029;BME280;6581;42.662;23.402;2022-12-07T01:30:58;95315.00;;;6.26;100.00
13029;BME280;6581;42.662;23.402;2022-12-07T01:33:26;95314.91;;;6.22;100.00
13029;BME280;6581;42.662;23.402;2022-12-07T01:35:54;95319.16;;;6.27;100.00
13029;BME280;6581;42.662;23.402;2022-12-07T01:38:21;95323.75;;;6.30;100.00
13029;BME280;6581;42.662;23.402;2022-12-07T01:40:55;95317.06;;;6.33;100.00
13029;BME280;6581;42.662;23.402;2022-12-07T01:43:28;95315.34;;;6.37;100.00
13029;BME280;6581;42.662;23.402;2022-12-07T01:45:58;95311.59;;;6.38;100.00
13029;BME280;6581;42.662;23.402;2022-12-07T01:48:28;95308.09;;;6.34;100.00
13029;BME280;6581;42.662;23.402;2022-12-07T01:51:01;95313.44;;;6.37;100.00
13029;BME280;6581;42.662;23.402;2022-12-07T01:53:32;95314.44;;;6.45;100.00
13029;BME280;6581;42.662;23.402;2022-12-07T01:56:04;95308.63;;;6.51;100.00
13029;BME280;6581;42.662;23.402;2022-12-07T01:58:32;95308.31;;;6.53;100.00
13029;BME280;6581;42.662;23.402;2022-12-07T02:00:59;95303.94;;;6.45;100.00
13029;BME280;6581;42.662;23.402;2022-12-07T02:03:30;95295.16;;;6.41;100.00
13029;BME280;6581;42.662;23.402;2022-12-07T02:05:59;95292.19;;;6.42;100.00
13029;BME280;6581;42.662;23.402;2022-12-07T02:08:27;95290.53;;;6.38;100.00
13029;BME280;6581;42.662;23.402;2022-12-07T02:10:55;95284.63;;;6.29;100.00
13029;BME280;6581;42.662;23.402;2022-12-07T02:13:29;95290.44;;;6.22;100.00
13029;BME280;6581;42.662;23.402;2022-12-07T02:16:08;95295.72;;;6.22;100.00
13029;BME280;6581;42.662;23.402;2022-12-07T02:18:49;95293.41;;;6.20;100.00
13029;BME280;6581;42.662;23.402;2022-12-07T02:21:29;95303.38;;;6.27;100.00
13029;BME280;6581;42.662;23.402;2022-12-07T02:24:19;95292.97;;;6.31;100.00
13029;BME280;6581;42.662;23.402;2022-12-07T02:27:11;95297.91;;;6.32;100.00
13029;BME280;6581;42.662;23.402;2022-12-07T02:29:45;95291.53;;;6.33;100.00
13029;BME280;6581;42.662;23.402;2022-12-07T02:32:16;95294.72;;;6.39;100.00
13029;BME280;6581;42.662;23.402;2022-12-07T02:34:49;95279.56;;;6.48;100.00
13029;BME280;6581;42.662;23.402;2022-12-07T02:40:54;95257.78;;;6.23;100.00
13029;BME280;6581;42.662;23.402;2022-12-07T02:43:33;95256.34;;;6.26;100.00
13029;BME280;6581;42.662;23.402;2022-12-07T02:46:08;95272.25;;;6.41;100.00
13029;BME280;6581;42.662;23.402;2022-12-07T02:49:00;95275.63;;;6.42;100.00
13029;BME280;6581;42.662;23.402;2022-12-07T02:51:56;95283.53;;;6.30;100.00
13029;BME280;6581;42.662;23.402;2022-12-07T02:54:32;95284.41;;;6.34;100.00
13029;BME280;6581;42.662;23.402;2022-12-07T02:57:17;95286.94;;;6.30;100.00
13029;BME280;6581;42.662;23.402;2022-12-07T03:00:00;95272.91;;;6.26;100.00
13029;BME280;6581;42.662;23.402;2022-12-07T03:06:10;95254.38;;;6.10;100.00
13029;BME280;6581;42.662;23.402;2022-12-07T03:08:59;95267.00;;;6.17;100.00
13029;BME280;6581;42.662;23.402;2022-12-07T03:11:41;95262.41;;;6.14;100.00
13029;BME280;6581;42.662;23.402;2022-12-07T03:14:39;95258.22;;;6.13;100.00
13029;BME280;6581;42.662;23.402;2022-12-07T03:17:43;95244.63;;;5.99;100.00
13029;BME280;6581;42.662;23.402;2022-12-07T03:20:18;95263.16;;;6.02;100.00
13029;BME280;6581;42.662;23.402;2022-12-07T03:22:49;95263.72;;;5.96;100.00
13029;BME280;6581;42.662;23.402;2022-12-07T03:25:18;95261.28;;;6.03;100.00
13029;BME280;6581;42.662;23.402;2022-12-07T03:27:49;95254.06;;;6.00;100.00
13029;BME280;6581;42.662;23.402;2022-12-07T03:30:19;95252.41;;;5.95;100.00
13029;BME280;6581;42.662;23.402;2022-12-07T03:32:51;95246.81;;;5.97;100.00
13029;BME280;6581;42.662;23.402;2022-12-07T03:35:40;95260.53;;;5.90;100.00
13029;BME280;6581;42.662;23.402;2022-12-07T03:38:15;95255.75;;;5.84;100.00
13029;BME280;6581;42.662;23.402;2022-12-07T03:40:47;95256.53;;;5.84;100.00
13029;BME280;6581;42.662;23.402;2022-12-07T03:44:16;95248.41;;;5.65;100.00
13029;BME280;6581;42.662;23.402;2022-12-07T03:47:13;95254.44;;;5.77;100.00
13029;BME280;6581;42.662;23.402;2022-12-07T03:49:49;95255.34;;;5.82;100.00
13029;BME280;6581;42.662;23.402;2022-12-07T03:52:27;95258.19;;;5.76;100.00
13029;BME280;6581;42.662;23.402;2022-12-07T03:55:22;95251.06;;;5.77;100.00
13029;BME280;6581;42.662;23.402;2022-12-07T04:01:10;95251.59;;;5.82;100.00
13029;BME280;6581;42.662;23.402;2022-12-07T04:03:42;95245.66;;;5.73;100.00
13029;BME280;6581;42.662;23.402;2022-12-07T04:06:13;95240.75;;;5.72;100.00
13029;BME280;6581;42.662;23.402;2022-12-07T04:09:06;95244.91;;;5.73;100.00
13029;BME280;6581;42.662;23.402;2022-12-07T04:11:34;95243.19;;;5.77;100.00
13029;BME280;6581;42.662;23.402;2022-12-07T04:14:01;95250.19;;;5.85;100.00
13029;BME280;6581;42.662;23.402;2022-12-07T04:16:52;95250.50;;;5.84;100.00
13029;BME280;6581;42.662;23.402;2022-12-07T04:19:27;95247.94;;;5.96;100.00
13029;BME280;6581;42.662;23.402;2022-12-07T04:21:59;95243.31;;;5.93;100.00
13029;BME280;6581;42.662;23.402;2022-12-07T04:24:30;95244.94;;;5.85;100.00
13029;BME280;6581;42.662;23.402;2022-12-07T04:27:14;95232.41;;;5.70;100.00
13029;BME280;6581;42.662;23.402;2022-12-07T04:29:42;95244.16;;;5.72;100.00
13029;BME280;6581;42.662;23.402;2022-12-07T04:32:13;95235.16;;;5.61;100.00
13029;BME280;6581;42.662;23.402;2022-12-07T04:34:43;95250.81;;;5.58;100.00
13029;BME280;6581;42.662;23.402;2022-12-07T04:37:12;95242.25;;;5.49;100.00
13029;BME280;6581;42.662;23.402;2022-12-07T04:39:39;95250.25;;;5.52;100.00
13029;BME280;6581;42.662;23.402;2022-12-07T04:42:07;95263.19;;;5.57;100.00
13029;BME280;6581;42.662;23.402;2022-12-07T04:44:34;95264.38;;;5.60;100.00
13029;BME280;6581;42.662;23.402;2022-12-07T04:47:01;95262.41;;;5.57;100.00
13029;BME280;6581;42.662;23.402;2022-12-07T04:49:28;95262.38;;;5.45;100.00
13029;BME280;6581;42.662;23.402;2022-12-07T04:51:55;95260.66;;;5.49;100.00
13029;BME280;6581;42.662;23.402;2022-12-07T04:54:42;95263.50;;;5.56;100.00
13029;BME280;6581;42.662;23.402;2022-12-07T04:57:25;95267.09;;;5.51;100.00
13029;BME280;6581;42.662;23.402;2022-12-07T04:59:53;95262.72;;;5.55;100.00
13029;BME280;6581;42.662;23.402;2022-12-07T05:02:19;95261.06;;;5.51;100.00
13029;BME280;6581;42.662;23.402;2022-12-07T05:04:47;95259.56;;;5.50;100.00
13029;BME280;6581;42.662;23.402;2022-12-07T05:07:14;95264.34;;;5.48;100.00
13029;BME280;6581;42.662;23.402;2022-12-07T05:09:42;95262.03;;;5.46;100.00
13029;BME280;6581;42.662;23.402;2022-12-07T05:12:09;95264.88;;;5.41;100.00
13029;BME280;6581;42.662;23.402;2022-12-07T05:14:37;95261.03;;;5.26;100.00
13029;BME280;6581;42.662;23.402;2022-12-07T05:17:05;95265.63;;;5.29;100.00
13029;BME280;6581;42.662;23.402;2022-12-07T05:19:32;95259.78;;;5.24;100.00
13029;BME280;6581;42.662;23.402;2022-12-07T05:22:00;95265.25;;;5.19;100.00
13029;BME280;6581;42.662;23.402;2022-12-07T05:24:27;95266.41;;;5.09;100.00
13029;BME280;6581;42.662;23.402;2022-12-07T05:26:56;95265.31;;;5.10;100.00
13029;BME280;6581;42.662;23.402;2022-12-07T05:29:23;95263.94;;;5.13;100.00
13029;BME280;6581;42.662;23.402;2022-12-07T05:31:50;95260.97;;;5.14;100.00
13029;BME280;6581;42.662;23.402;2022-12-07T05:34:17;95266.66;;;5.16;100.00
13029;BME280;6581;42.662;23.402;2022-12-07T05:36:44;95264.94;;;5.20;100.00
13029;BME280;6581;42.662;23.402;2022-12-07T05:39:12;95265.13;;;5.15;100.00
13029;BME280;6581;42.662;23.402;2022-12-07T05:41:41;95265.91;;;5.16;100.00
13029;BME280;6581;42.662;23.402;2022-12-07T05:44:27;95261.22;;;5.21;100.00
13029;BME280;6581;42.662;23.402;2022-12-07T05:46:54;95257.72;;;5.17;100.00
13029;BME280;6581;42.662;23.402;2022-12-07T05:49:24;95252.47;;;5.17;100.00
13029;BME280;6581;42.662;23.402;2022-12-07T05:52:01;95249.56;;;5.10;100.00
13029;BME280;6581;42.662;23.402;2022-12-07T05:55:16;95247.59;;;5.07;100.00
13029;BME280;6581;42.662;23.402;2022-12-07T05:58:24;95259.56;;;5.17;100.00
13029;BME280;6581;42.662;23.402;2022-12-07T06:01:10;95256.59;;;5.18;100.00
13029;BME280;6581;42.662;23.402;2022-12-07T06:03:37;95250.34;;;5.11;100.00
13029;BME280;6581;42.662;23.402;2022-12-07T06:06:04;95255.59;;;5.11;100.00
13029;BME280;6581;42.662;23.402;2022-12-07T06:08:32;95266.22;;;5.14;100.00
13029;BME280;6581;42.662;23.402;2022-12-07T06:11:00;95259.00;;;5.11;100.00
13029;BME280;6581;42.662;23.402;2022-12-07T06:13:41;95255.50;;;5.19;100.00
13029;BME280;6581;42.662;23.402;2022-12-07T06:16:09;95255.31;;;5.24;100.00
13029;BME280;6581;42.662;23.402;2022-12-07T06:18:36;95249.66;;;5.34;100.00
13029;BME280;6581;42.662;23.402;2022-12-07T06:21:03;95250.13;;;5.49;100.00
13029;BME280;6581;42.662;23.402;2022-12-07T06:23:30;95255.59;;;5.56;100.00
13029;BME280;6581;42.662;23.402;2022-12-07T06:25:58;95269.63;;;5.60;100.00
13029;BME280;6581;42.662;23.402;2022-12-07T06:28:49;95263.41;;;5.64;100.00
13029;BME280;6581;42.662;23.402;2022-12-07T06:31:43;95263.66;;;5.71;100.00
13029;BME280;6581;42.662;23.402;2022-12-07T06:34:12;95268.13;;;5.83;100.00
13029;BME280;6581;42.662;23.402;2022-12-07T06:36:40;95260.06;;;5.88;100.00
13029;BME280;6581;42.662;23.402;2022-12-07T06:39:08;95264.63;;;5.79;100.00
13029;BME280;6581;42.662;23.402;2022-12-07T06:41:36;95263.56;;;5.92;100.00
13029;BME280;6581;42.662;23.402;2022-12-07T06:44:04;95269.84;;;6.00;100.00
13029;BME280;6581;42.662;23.402;2022-12-07T06:46:31;95270.38;;;6.05;100.00
13029;BME280;6581;42.662;23.402;2022-12-07T06:49:00;95260.00;;;6.09;100.00
13029;BME280;6581;42.662;23.402;2022-12-07T06:51:27;95276.84;;;6.20;100.00
13029;BME280;6581;42.662;23.402;2022-12-07T06:53:55;95273.78;;;6.18;100.00
13029;BME280;6581;42.662;23.402;2022-12-07T06:56:22;95278.16;;;6.26;100.00
13029;BME280;6581;42.662;23.402;2022-12-07T06:58:49;95271.25;;;6.34;100.00
13029;BME280;6581;42.662;23.402;2022-12-07T07:01:18;95273.88;;;6.34;100.00
13029;BME280;6581;42.662;23.402;2022-12-07T07:03:45;95279.81;;;6.31;100.00
13029;BME280;6581;42.662;23.402;2022-12-07T07:06:14;95266.66;;;6.31;100.00
13029;BME280;6581;42.662;23.402;2022-12-07T07:08:41;95271.03;;;6.14;100.00
13029;BME280;6581;42.662;23.402;2022-12-07T07:11:09;95270.81;;;6.19;100.00
13029;BME280;6581;42.662;23.402;2022-12-07T07:13:37;95281.22;;;6.28;100.00
13029;BME280;6581;42.662;23.402;2022-12-07T07:16:05;95270.06;;;6.31;100.00
13029;BME280;6581;42.662;23.402;2022-12-07T07:18:32;95275.41;;;6.35;100.00
13029;BME280;6581;42.662;23.402;2022-12-07T07:21:00;95281.13;;;6.37;100.00
13029;BME280;6581;42.662;23.402;2022-12-07T07:23:29;95285.16;;;6.46;100.00
13029;BME280;6581;42.662;23.402;2022-12-07T07:25:56;95287.50;;;6.36;100.00
13029;BME280;6581;42.662;23.402;2022-12-07T07:28:23;95287.06;;;6.46;100.00
13029;BME280;6581;42.662;23.402;2022-12-07T07:31:15;95284.84;;;6.36;100.00
13029;BME280;6581;42.662;23.402;2022-12-07T07:33:42;95280.66;;;6.47;100.00
13029;BME280;6581;42.662;23.402;2022-12-07T07:36:10;95289.44;;;6.63;100.00
13029;BME280;6581;42.662;23.402;2022-12-07T07:38:38;95292.50;;;6.53;100.00
13029;BME280;6581;42.662;23.402;2022-12-07T07:41:06;95301.59;;;6.55;100.00
13029;BME280;6581;42.662;23.402;2022-12-07T07:43:33;95292.41;;;6.49;100.00
13029;BME280;6581;42.662;23.402;2022-12-07T07:46:00;95293.59;;;6.52;100.00
13029;BME280;6581;42.662;23.402;2022-12-07T07:48:27;95287.38;;;6.44;100.00
13029;BME280;6581;42.662;23.402;2022-12-07T07:50:54;95284.84;;;6.48;100.00
13029;BME280;6581;42.662;23.402;2022-12-07T07:53:21;95286.81;;;6.63;100.00
13029;BME280;6581;42.662;23.402;2022-12-07T07:55:53;95283.91;;;6.80;100.00
13029;BME280;6581;42.662;23.402;2022-12-07T07:58:20;95282.91;;;6.85;100.00
13029;BME280;6581;42.662;23.402;2022-12-07T08:00:47;95281.00;;;6.97;100.00
13029;BME280;6581;42.662;23.402;2022-12-07T08:03:15;95285.03;;;7.07;100.00
13029;BME280;6581;42.662;23.402;2022-12-07T08:05:42;95279.41;;;7.21;100.00
13029;BME280;6581;42.662;23.402;2022-12-07T08:08:09;95280.94;;;7.22;100.00
13029;BME280;6581;42.662;23.402;2022-12-07T08:10:36;95284.81;;;7.40;100.00
13029;BME280;6581;42.662;23.402;2022-12-07T08:13:05;95283.47;;;7.46;100.00
13029;BME280;6581;42.662;23.402;2022-12-07T08:15:40;95287.00;;;7.38;100.00
13029;BME280;6581;42.662;23.402;2022-12-07T08:18:08;95287.22;;;7.45;100.00
13029;BME280;6581;42.662;23.402;2022-12-07T08:20:37;95283.25;;;7.51;100.00
13029;BME280;6581;42.662;23.402;2022-12-07T08:23:05;95278.34;;;7.65;100.00
13029;BME280;6581;42.662;23.402;2022-12-07T08:25:33;95282.22;;;7.71;100.00
13029;BME280;6581;42.662;23.402;2022-12-07T08:28:01;95280.97;;;7.65;100.00
13029;BME280;6581;42.662;23.402;2022-12-07T08:30:30;95282.25;;;7.87;100.00
13029;BME280;6581;42.662;23.402;2022-12-07T08:32:57;95285.13;;;7.97;100.00
13029;BME280;6581;42.662;23.402;2022-12-07T08:35:25;95277.94;;;8.10;100.00
13029;BME280;6581;42.662;23.402;2022-12-07T08:37:52;95283.47;;;8.05;100.00
13029;BME280;6581;42.662;23.402;2022-12-07T08:40:19;95286.84;;;8.21;100.00
13029;BME280;6581;42.662;23.402;2022-12-07T08:42:49;95282.63;;;8.32;100.00
13029;BME280;6581;42.662;23.402;2022-12-07T08:45:17;95287.53;;;8.50;99.49
13029;BME280;6581;42.662;23.402;2022-12-07T08:48:13;95270.09;;;8.45;98.45
13029;BME280;6581;42.662;23.402;2022-12-07T08:50:43;95268.81;;;8.39;99.85
13029;BME280;6581;42.662;23.402;2022-12-07T08:53:11;95275.63;;;8.40;99.15
13029;BME280;6581;42.662;23.402;2022-12-07T08:55:38;95268.91;;;8.42;97.85
13029;BME280;6581;42.662;23.402;2022-12-07T08:58:05;95264.97;;;8.52;97.60
13029;BME280;6581;42.662;23.402;2022-12-07T09:00:32;95267.72;;;8.75;95.51
13029;BME280;6581;42.662;23.402;2022-12-07T09:02:59;95258.38;;;8.62;95.45
13029;BME280;6581;42.662;23.402;2022-12-07T09:05:28;95256.03;;;8.76;95.86
13029;BME280;6581;42.662;23.402;2022-12-07T09:07:57;95252.84;;;8.86;95.79
13029;BME280;6581;42.662;23.402;2022-12-07T09:10:26;95244.38;;;8.96;95.82
13029;BME280;6581;42.662;23.402;2022-12-07T09:12:54;95253.28;;;9.07;94.93
13029;BME280;6581;42.662;23.402;2022-12-07T09:15:21;95261.97;;;9.08;94.25
13029;BME280;6581;42.662;23.402;2022-12-07T09:17:48;95257.44;;;9.08;93.32
13029;BME280;6581;42.662;23.402;2022-12-07T09:20:42;95251.13;;;9.13;93.24
13029;BME280;6581;42.662;23.402;2022-12-07T09:23:09;95249.13;;;9.06;92.80
13029;BME280;6581;42.662;23.402;2022-12-07T09:25:36;95234.97;;;8.99;93.66
13029;BME280;6581;42.662;23.402;2022-12-07T09:28:03;95239.56;;;8.82;95.04
13029;BME280;6581;42.662;23.402;2022-12-07T09:30:30;95242.84;;;8.95;94.35
13029;BME280;6581;42.662;23.402;2022-12-07T09:32:57;95229.34;;;9.00;94.66
13029;BME280;6581;42.662;23.402;2022-12-07T09:35:25;95235.75;;;9.18;94.49
13029;BME280;6581;42.662;23.402;2022-12-07T09:37:54;95231.38;;;9.07;93.45
13029;BME280;6581;42.662;23.402;2022-12-07T09:40:22;95226.72;;;9.19;92.41
13029;BME280;6581;42.662;23.402;2022-12-07T09:42:52;95218.13;;;9.26;92.30
13029;BME280;6581;42.662;23.402;2022-12-07T09:45:23;95215.75;;;9.40;92.51
13029;BME280;6581;42.662;23.402;2022-12-07T09:47:51;95213.91;;;9.63;92.05
13029;BME280;6581;42.662;23.402;2022-12-07T09:50:20;95215.03;;;9.62;89.98
13029;BME280;6581;42.662;23.402;2022-12-07T09:52:49;95211.16;;;9.56;90.20
13029;BME280;6581;42.662;23.402;2022-12-07T09:55:22;95206.91;;;9.52;89.95
13029;BME280;6581;42.662;23.402;2022-12-07T09:57:52;95206.09;;;9.70;89.81
13029;BME280;6581;42.662;23.402;2022-12-07T10:00:21;95206.38;;;9.65;90.09
13029;BME280;6581;42.662;23.402;2022-12-07T10:02:51;95207.97;;;9.47;90.73
13029;BME280;6581;42.662;23.402;2022-12-07T10:05:22;95202.41;;;9.33;91.76
13029;BME280;6581;42.662;23.402;2022-12-07T10:07:51;95192.19;;;9.31;90.99
13029;BME280;6581;42.662;23.402;2022-12-07T10:10:23;95188.31;;;9.25;91.80
13029;BME280;6581;42.662;23.402;2022-12-07T10:12:57;95190.56;;;9.46;91.59
13029;BME280;6581;42.662;23.402;2022-12-07T10:15:43;95179.75;;;9.55;89.86
13029;BME280;6581;42.662;23.402;2022-12-07T10:18:25;95192.16;;;9.73;89.01
13029;BME280;6581;42.662;23.402;2022-12-07T10:21:12;95179.13;;;9.61;89.19
13029;BME280;6581;42.662;23.402;2022-12-07T10:23:41;95183.69;;;9.64;89.57
13029;BME280;6581;42.662;23.402;2022-12-07T10:26:27;95175.00;;;9.64;90.20
13029;BME280;6581;42.662;23.402;2022-12-07T10:28:55;95176.09;;;9.63;89.51
13029;BME280;6581;42.662;23.402;2022-12-07T10:31:24;95164.53;;;9.71;89.71
13029;BME280;6581;42.662;23.402;2022-12-07T10:33:52;95160.53;;;9.81;89.28
13029;BME280;6581;42.662;23.402;2022-12-07T10:36:23;95155.59;;;9.79;88.15
13029;BME280;6581;42.662;23.402;2022-12-07T10:38:52;95153.47;;;9.88;88.39
13029;BME280;6581;42.662;23.402;2022-12-07T10:41:21;95155.44;;;9.95;87.99
13029;BME280;6581;42.662;23.402;2022-12-07T10:43:53;95155.41;;;10.17;87.11
13029;BME280;6581;42.662;23.402;2022-12-07T10:55:45;95144.09;;;10.17;87.80
13029;BME280;6581;42.662;23.402;2022-12-07T10:58:36;95136.50;;;10.15;87.12
13029;BME280;6581;42.662;23.402;2022-12-07T11:01:22;95135.78;;;10.18;86.51
13029;BME280;6581;42.662;23.402;2022-12-07T11:04:10;95127.88;;;10.22;86.70
13029;BME280;6581;42.662;23.402;2022-12-07T11:06:46;95120.34;;;10.24;86.35
13029;BME280;6581;42.662;23.402;2022-12-07T11:09:33;95117.06;;;10.34;86.75
13029;BME280;6581;42.662;23.402;2022-12-07T11:12:10;95117.91;;;10.42;83.96
13029;BME280;6581;42.662;23.402;2022-12-07T11:14:48;95122.13;;;10.46;84.77
13029;BME280;6581;42.662;23.402;2022-12-07T11:17:25;95107.06;;;10.50;85.38
13029;BME280;6581;42.662;23.402;2022-12-07T11:20:02;95112.06;;;10.26;84.68
13029;BME280;6581;42.662;23.402;2022-12-07T11:22:38;95107.88;;;10.25;85.43
13029;BME280;6581;42.662;23.402;2022-12-07T11:25:17;95102.41;;;10.40;84.82
13029;BME280;6581;42.662;23.402;2022-12-07T11:27:52;95106.94;;;10.40;84.95
13029;BME280;6581;42.662;23.402;2022-12-07T11:30:32;95098.22;;;10.13;85.43
13029;BME280;6581;42.662;23.402;2022-12-07T11:33:10;95093.63;;;10.06;86.49
13029;BME280;6581;42.662;23.402;2022-12-07T11:35:48;95086.91;;;10.12;86.05
13029;BME280;6581;42.662;23.402;2022-12-07T11:38:21;95077.53;;;10.18;85.87
13029;BME280;6581;42.662;23.402;2022-12-07T11:40:53;95078.78;;;10.28;85.80
13029;BME280;6581;42.662;23.402;2022-12-07T11:43:48;95078.72;;;10.21;85.57
13029;BME280;6581;42.662;23.402;2022-12-07T11:46:20;95072.00;;;10.01;86.83
13029;BME280;6581;42.662;23.402;2022-12-07T11:48:57;95072.34;;;9.99;87.83
13029;BME280;6581;42.662;23.402;2022-12-07T11:51:26;95067.16;;;10.06;87.79
13029;BME280;6581;42.662;23.402;2022-12-07T11:53:58;95075.06;;;10.03;87.85
13029;BME280;6581;42.662;23.402;2022-12-07T11:56:30;95068.38;;;9.86;88.25
13029;BME280;6581;42.662;23.402;2022-12-07T11:59:08;95058.00;;;10.00;87.87
13029;BME280;6581;42.662;23.402;2022-12-07T12:01:55;95058.28;;;9.95;88.27
13029;BME280;6581;42.662;23.402;2022-12-07T12:04:30;95062.50;;;10.00;88.84
13029;BME280;6581;42.662;23.402;2022-12-07T12:07:26;95063.56;;;9.92;88.59
13029;BME280;6581;42.662;23.402;2022-12-07T12:09:57;95050.94;;;9.82;88.10
13029;BME280;6581;42.662;23.402;2022-12-07T12:12:50;95046.44;;;9.86;88.04
13029;BME280;6581;42.662;23.402;2022-12-07T12:15:38;95045.72;;;9.85;88.52
13029;BME280;6581;42.662;23.402;2022-12-07T12:21:03;95041.03;;;9.75;88.99
13029;BME280;6581;42.662;23.402;2022-12-07T12:23:38;95035.38;;;9.76;89.18
13029;BME280;6581;42.662;23.402;2022-12-07T12:26:08;95034.56;;;9.72;89.71
13029;BME280;6581;42.662;23.402;2022-12-07T12:28:52;95030.72;;;9.66;88.88
13029;BME280;6581;42.662;23.402;2022-12-07T12:31:34;95034.50;;;9.69;88.62
13029;BME280;6581;42.662;23.402;2022-12-07T12:34:30;95035.69;;;9.71;89.81
13029;BME280;6581;42.662;23.402;2022-12-07T12:36:58;95030.03;;;9.73;91.15
13029;BME280;6581;42.662;23.402;2022-12-07T12:39:26;95023.94;;;9.69;91.19
13029;BME280;6581;42.662;23.402;2022-12-07T12:41:56;95017.69;;;9.81;89.86
13029;BME280;6581;42.662;23.402;2022-12-07T12:47:53;95008.56;;;10.08;88.29
13029;BME280;6581;42.662;23.402;2022-12-07T12:50:24;95007.06;;;10.07;88.07
13029;BME280;6581;42.662;23.402;2022-12-07T12:53:14;95008.66;;;10.15;86.94
13029;BME280;6581;42.662;23.402;2022-12-07T12:59:24;95013.03;;;10.30;85.62
13029;BME280;6581;42.662;23.402;2022-12-07T13:01:55;95014.03;;;10.55;85.69
13029;BME280;6581;42.662;23.402;2022-12-07T13:04:39;95019.16;;;10.75;84.76
13029;BME280;6581;42.662;23.402;2022-12-07T13:10:25;95008.81;;;11.03;84.33
13029;BME280;6581;42.662;23.402;2022-12-07T13:12:56;95010.22;;;10.90;84.49
13029;BME280;6581;42.662;23.402;2022-12-07T13:15:36;95017.19;;;11.08;84.14
13029;BME280;6581;42.662;23.402;2022-12-07T13:18:22;95018.41;;;11.18;83.94
13029;BME280;6581;42.662;23.402;2022-12-07T13:20:57;95015.78;;;11.22;83.22
13029;BME280;6581;42.662;23.402;2022-12-07T13:23:32;95016.66;;;11.40;83.08
13029;BME280;6581;42.662;23.402;2022-12-07T13:26:09;95014.03;;;11.43;82.44
13029;BME280;6581;42.662;23.402;2022-12-07T13:28:41;95014.38;;;11.38;82.67
13029;BME280;6581;42.662;23.402;2022-12-07T13:31:32;95015.75;;;11.18;83.93
13029;BME280;6581;42.662;23.402;2022-12-07T13:34:01;95018.66;;;11.06;84.22
13029;BME280;6581;42.662;23.402;2022-12-07T13:36:32;95002.78;;;11.06;84.55
13029;BME280;6581;42.662;23.402;2022-12-07T13:39:17;95008.47;;;11.08;84.75
13029;BME280;6581;42.662;23.402;2022-12-07T13:41:50;95006.94;;;11.03;84.69
13029;BME280;6581;42.662;23.402;2022-12-07T13:44:41;95002.09;;;10.72;85.97
13029;BME280;6581;42.662;23.402;2022-12-07T13:47:13;94997.75;;;10.53;86.70
13029;BME280;6581;42.662;23.402;2022-12-07T13:49:47;94990.63;;;10.61;86.94
13029;BME280;6581;42.662;23.402;2022-12-07T13:52:16;94997.28;;;10.85;86.49
13029;BME280;6581;42.662;23.402;2022-12-07T13:54:47;94984.44;;;10.87;86.41
13029;BME280;6581;42.662;23.402;2022-12-07T13:57:17;94990.25;;;10.99;86.13
13029;BME280;6581;42.662;23.402;2022-12-07T13:59:45;94992.03;;;10.92;86.49
13029;BME280;6581;42.662;23.402;2022-12-07T14:02:21;94988.63;;;10.91;85.88
13029;BME280;6581;42.662;23.402;2022-12-07T14:04:49;94982.22;;;10.96;85.82
13029;BME280;6581;42.662;23.402;2022-12-07T14:07:48;94982.53;;;10.87;86.08